KHVR

Havre City-County Airport

Havre, Montana, USA
METAR KHVR 230153Z AUTO 23009KT 10SM CLR 22/10 A2992 RMK AO2 SLP122 T02170100
Observed Flight Rules
May-23 @ 01:53 UTC (an hour ago) Visual Flight Rules
Wind Visibility Clouds
230° at 9 knots 10 miles
  • Clear skies
Temperatures Readings
Current 22°C / 72°F
Dewpoint 10°C / 50°F
Humidity 47%
Altimeter 29.92" Hg
Pressure 1012.2 hPa
Elevation 787
METAR KHVR 230153Z AUTO 23009KT 10SM CLR 22/10 A2992 RMK AO2 SLP122 T02170100
Observed Flight Rules
May-23 @ 01:53 UTC
(an hour ago)
VFR
Wind Visibility
230° at 9 knots 10 miles
Clouds
  • Clear skies
Temperature Dewpoint
22°C / 72°F 10°C / 50°F
Humidity Altimeter Pressure
47% 29.92" Hg 1012.2 hPa